sensor_id;sensor_type;location;lat;lon;timestamp;pressure;altitude;pressure_sealevel;temperature;humidity
82290;BME280;71891;21.336;-157.724;2023-08-21T00:02:19;101132.81;;;32.92;27.86
82290;BME280;71891;21.336;-157.724;2023-08-21T00:04:44;101139.63;;;33.97;27.19
82290;BME280;71891;21.336;-157.724;2023-08-21T00:07:10;101138.99;;;34.12;27.16
82290;BME280;71891;21.336;-157.724;2023-08-21T00:09:36;101135.10;;;33.57;27.62
82290;BME280;71891;21.336;-157.724;2023-08-21T00:12:01;101130.19;;;33.76;26.95
82290;BME280;71891;21.336;-157.724;2023-08-21T00:14:26;101131.15;;;33.57;27.21
82290;BME280;71891;21.336;-157.724;2023-08-21T00:16:52;101132.91;;;33.49;26.68
82290;BME280;71891;21.336;-157.724;2023-08-21T00:19:18;101127.60;;;33.85;26.65
82290;BME280;71891;21.336;-157.724;2023-08-21T00:21:43;101120.08;;;33.13;26.80
82290;BME280;71891;21.336;-157.724;2023-08-21T00:24:09;101124.83;;;34.16;25.80
82290;BME280;71891;21.336;-157.724;2023-08-21T00:26:34;101120.95;;;33.33;26.94
82290;BME280;71891;21.336;-157.724;2023-08-21T00:29:00;101116.46;;;33.01;27.22
82290;BME280;71891;21.336;-157.724;2023-08-21T00:31:25;101118.91;;;33.13;26.86
82290;BME280;71891;21.336;-157.724;2023-08-21T00:33:51;101114.74;;;33.98;26.86
82290;BME280;71891;21.336;-157.724;2023-08-21T00:36:16;101113.63;;;31.66;28.10
82290;BME280;71891;21.336;-157.724;2023-08-21T00:38:42;101110.62;;;34.79;26.55
82290;BME280;71891;21.336;-157.724;2023-08-21T00:41:08;101108.99;;;33.38;27.39
82290;BME280;71891;21.336;-157.724;2023-08-21T00:43:33;101109.77;;;33.51;27.75
82290;BME280;71891;21.336;-157.724;2023-08-21T00:45:59;101103.83;;;32.60;28.07
82290;BME280;71891;21.336;-157.724;2023-08-21T00:48:25;101103.44;;;32.90;28.22
82290;BME280;71891;21.336;-157.724;2023-08-21T00:50:50;101096.96;;;32.98;28.27
82290;BME280;71891;21.336;-157.724;2023-08-21T00:53:15;101097.88;;;33.38;27.99
82290;BME280;71891;21.336;-157.724;2023-08-21T00:55:41;101098.19;;;34.47;27.19
82290;BME280;71891;21.336;-157.724;2023-08-21T00:58:06;101094.78;;;33.81;27.96
82290;BME280;71891;21.336;-157.724;2023-08-21T01:00:32;101099.07;;;33.67;28.48
82290;BME280;71891;21.336;-157.724;2023-08-21T01:02:58;101094.38;;;33.80;28.00
82290;BME280;71891;21.336;-157.724;2023-08-21T01:05:23;101084.07;;;33.85;28.45
82290;BME280;71891;21.336;-157.724;2023-08-21T01:08:01;101086.81;;;32.36;29.25
82290;BME280;71891;21.336;-157.724;2023-08-21T01:10:20;101086.91;;;34.34;28.41
82290;BME280;71891;21.336;-157.724;2023-08-21T01:12:46;101085.20;;;33.07;28.38
82290;BME280;71891;21.336;-157.724;2023-08-21T01:15:06;101084.06;;;33.72;28.29
82290;BME280;71891;21.336;-157.724;2023-08-21T01:17:32;101082.90;;;33.82;28.38
82290;BME280;71891;21.336;-157.724;2023-08-21T01:19:57;101083.45;;;33.73;28.55
82290;BME280;71891;21.336;-157.724;2023-08-21T01:22:26;101083.77;;;33.42;28.47
82290;BME280;71891;21.336;-157.724;2023-08-21T01:24:48;101084.19;;;32.90;28.83
82290;BME280;71891;21.336;-157.724;2023-08-21T01:27:14;101080.83;;;33.70;28.05
82290;BME280;71891;21.336;-157.724;2023-08-21T01:29:38;101078.49;;;33.50;28.37
82290;BME280;71891;21.336;-157.724;2023-08-21T01:32:09;101083.07;;;33.03;28.53
82290;BME280;71891;21.336;-157.724;2023-08-21T01:34:30;101078.42;;;33.80;28.13
82290;BME280;71891;21.336;-157.724;2023-08-21T01:36:55;101080.47;;;33.12;28.25
82290;BME280;71891;21.336;-157.724;2023-08-21T01:39:21;101080.83;;;33.73;28.33
82290;BME280;71891;21.336;-157.724;2023-08-21T01:41:46;101086.92;;;32.56;28.53
82290;BME280;71891;21.336;-157.724;2023-08-21T01:44:12;101080.45;;;33.30;28.53
82290;BME280;71891;21.336;-157.724;2023-08-21T01:46:42;101081.72;;;33.21;28.58
82290;BME280;71891;21.336;-157.724;2023-08-21T01:49:03;101082.43;;;33.52;28.85
82290;BME280;71891;21.336;-157.724;2023-08-21T01:51:28;101081.58;;;32.88;28.71
82290;BME280;71891;21.336;-157.724;2023-08-21T01:53:54;101081.88;;;33.88;28.66
82290;BME280;71891;21.336;-157.724;2023-08-21T01:56:20;101085.81;;;33.38;27.94
82290;BME280;71891;21.336;-157.724;2023-08-21T01:58:45;101086.30;;;32.65;29.13
82290;BME280;71891;21.336;-157.724;2023-08-21T02:01:11;101084.14;;;33.19;28.62
82290;BME280;71891;21.336;-157.724;2023-08-21T02:03:37;101083.89;;;33.44;28.14
82290;BME280;71891;21.336;-157.724;2023-08-21T02:06:02;101087.67;;;33.77;28.07
82290;BME280;71891;21.336;-157.724;2023-08-21T02:08:33;101086.74;;;33.48;28.40
82290;BME280;71891;21.336;-157.724;2023-08-21T02:10:53;101088.31;;;32.98;28.63
82290;BME280;71891;21.336;-157.724;2023-08-21T02:13:19;101084.50;;;32.79;28.29
82290;BME280;71891;21.336;-157.724;2023-08-21T02:15:44;101087.03;;;33.12;27.89
82290;BME280;71891;21.336;-157.724;2023-08-21T02:18:09;101090.31;;;33.40;27.72
82290;BME280;71891;21.336;-157.724;2023-08-21T02:20:35;101087.21;;;33.24;27.79
82290;BME280;71891;21.336;-157.724;2023-08-21T02:23:01;101086.11;;;33.12;27.88
82290;BME280;71891;21.336;-157.724;2023-08-21T02:25:26;101084.17;;;33.32;27.89
82290;BME280;71891;21.336;-157.724;2023-08-21T02:27:52;101080.33;;;32.88;28.09
82290;BME280;71891;21.336;-157.724;2023-08-21T02:30:18;101079.70;;;32.51;28.62
82290;BME280;71891;21.336;-157.724;2023-08-21T02:32:43;101085.27;;;32.98;27.74
82290;BME280;71891;21.336;-157.724;2023-08-21T02:35:09;101082.11;;;33.29;27.11
82290;BME280;71891;21.336;-157.724;2023-08-21T02:37:35;101087.09;;;33.49;27.26
82290;BME280;71891;21.336;-157.724;2023-08-21T02:39:59;101080.85;;;32.95;27.16
82290;BME280;71891;21.336;-157.724;2023-08-21T02:42:25;101087.24;;;33.35;27.11
82290;BME280;71891;21.336;-157.724;2023-08-21T02:44:51;101081.83;;;33.18;27.01
82290;BME280;71891;21.336;-157.724;2023-08-21T02:47:16;101080.64;;;32.51;28.28
82290;BME280;71891;21.336;-157.724;2023-08-21T02:49:42;101081.51;;;32.99;28.39
82290;BME280;71891;21.336;-157.724;2023-08-21T02:52:08;101079.05;;;32.53;28.28
82290;BME280;71891;21.336;-157.724;2023-08-21T02:54:33;101082.71;;;32.73;28.31
82290;BME280;71891;21.336;-157.724;2023-08-21T02:56:58;101084.02;;;32.29;28.74
82290;BME280;71891;21.336;-157.724;2023-08-21T02:59:24;101084.01;;;32.16;28.65
82290;BME280;71891;21.336;-157.724;2023-08-21T03:01:50;101086.17;;;33.72;27.81
82290;BME280;71891;21.336;-157.724;2023-08-21T03:04:15;101085.22;;;32.61;28.48
82290;BME280;71891;21.336;-157.724;2023-08-21T03:06:41;101086.41;;;32.02;28.66
82290;BME280;71891;21.336;-157.724;2023-08-21T03:09:06;101088.64;;;33.05;28.66
82290;BME280;71891;21.336;-157.724;2023-08-21T03:11:32;101087.76;;;31.90;28.73
82290;BME280;71891;21.336;-157.724;2023-08-21T03:13:57;101086.67;;;32.59;28.37
82290;BME280;71891;21.336;-157.724;2023-08-21T03:16:23;101084.75;;;31.53;29.14
82290;BME280;71891;21.336;-157.724;2023-08-21T03:18:56;101088.99;;;32.29;28.72
82290;BME280;71891;21.336;-157.724;2023-08-21T03:21:14;101087.66;;;31.95;28.50
82290;BME280;71891;21.336;-157.724;2023-08-21T03:23:40;101088.37;;;32.80;28.21
82290;BME280;71891;21.336;-157.724;2023-08-21T03:26:05;101090.17;;;31.98;29.06
82290;BME280;71891;21.336;-157.724;2023-08-21T03:28:31;101085.18;;;32.03;29.09
82290;BME280;71891;21.336;-157.724;2023-08-21T03:30:56;101083.15;;;31.87;29.28
82290;BME280;71891;21.336;-157.724;2023-08-21T03:33:23;101080.79;;;32.90;28.72
82290;BME280;71891;21.336;-157.724;2023-08-21T03:35:53;101087.36;;;32.39;29.02
82290;BME280;71891;21.336;-157.724;2023-08-21T03:38:13;101086.70;;;31.94;29.02
82290;BME280;71891;21.336;-157.724;2023-08-21T03:40:40;101087.64;;;32.12;29.31
82290;BME280;71891;21.336;-157.724;2023-08-21T03:43:04;101088.88;;;31.99;28.92
82290;BME280;71891;21.336;-157.724;2023-08-21T03:45:30;101090.02;;;32.18;29.44
82290;BME280;71891;21.336;-157.724;2023-08-21T03:47:55;101093.21;;;32.28;29.13
82290;BME280;71891;21.336;-157.724;2023-08-21T03:50:21;101095.73;;;32.61;28.94
82290;BME280;71891;21.336;-157.724;2023-08-21T03:52:47;101097.36;;;31.89;29.44
82290;BME280;71891;21.336;-157.724;2023-08-21T03:55:13;101102.04;;;32.06;29.65
82290;BME280;71891;21.336;-157.724;2023-08-21T03:57:38;101102.67;;;32.26;29.08
82290;BME280;71891;21.336;-157.724;2023-08-21T04:00:04;101103.40;;;31.59;29.88
82290;BME280;71891;21.336;-157.724;2023-08-21T04:02:29;101108.38;;;31.97;29.70
82290;BME280;71891;21.336;-157.724;2023-08-21T04:04:54;101106.96;;;32.42;29.74
82290;BME280;71891;21.336;-157.724;2023-08-21T04:07:20;101109.40;;;31.84;30.22
82290;BME280;71891;21.336;-157.724;2023-08-21T04:09:46;101105.28;;;31.08;30.12
82290;BME280;71891;21.336;-157.724;2023-08-21T04:12:11;101109.28;;;31.75;29.84
82290;BME280;71891;21.336;-157.724;2023-08-21T04:14:37;101109.54;;;31.72;29.88
82290;BME280;71891;21.336;-157.724;2023-08-21T04:17:03;101110.95;;;32.14;29.99
82290;BME280;71891;21.336;-157.724;2023-08-21T04:19:28;101112.65;;;31.10;31.00
82290;BME280;71891;21.336;-157.724;2023-08-21T04:21:54;101110.31;;;31.15;31.19
82290;BME280;71891;21.336;-157.724;2023-08-21T04:24:19;101114.79;;;31.83;30.57
82290;BME280;71891;21.336;-157.724;2023-08-21T04:26:45;101114.84;;;30.91;31.14
82290;BME280;71891;21.336;-157.724;2023-08-21T04:29:10;101113.35;;;31.35;30.86
82290;BME280;71891;21.336;-157.724;2023-08-21T04:31:36;101117.61;;;31.60;30.29
82290;BME280;71891;21.336;-157.724;2023-08-21T04:34:01;101116.96;;;31.37;30.64
82290;BME280;71891;21.336;-157.724;2023-08-21T04:36:27;101122.10;;;31.09;30.52
82290;BME280;71891;21.336;-157.724;2023-08-21T04:38:53;101124.79;;;31.79;30.13
82290;BME280;71891;21.336;-157.724;2023-08-21T04:41:18;101125.52;;;30.58;31.05
82290;BME280;71891;21.336;-157.724;2023-08-21T04:43:44;101126.87;;;30.97;30.62
82290;BME280;71891;21.336;-157.724;2023-08-21T04:46:09;101131.43;;;32.12;30.02
82290;BME280;71891;21.336;-157.724;2023-08-21T04:48:36;101134.79;;;31.42;30.87
82290;BME280;71891;21.336;-157.724;2023-08-21T04:51:01;101137.03;;;31.36;31.00
82290;BME280;71891;21.336;-157.724;2023-08-21T04:53:26;101142.99;;;31.82;30.46
82290;BME280;71891;21.336;-157.724;2023-08-21T04:55:52;101144.50;;;30.53;31.72
82290;BME280;71891;21.336;-157.724;2023-08-21T04:58:17;101142.39;;;31.15;31.08
82290;BME280;71891;21.336;-157.724;2023-08-21T05:00:45;101141.48;;;30.95;31.21
82290;BME280;71891;21.336;-157.724;2023-08-21T05:03:09;101145.68;;;31.02;31.73
82290;BME280;71891;21.336;-157.724;2023-08-21T05:05:35;101139.32;;;31.35;31.11
82290;BME280;71891;21.336;-157.724;2023-08-21T05:08:00;101142.93;;;31.04;31.51
82290;BME280;71891;21.336;-157.724;2023-08-21T05:10:26;101144.66;;;31.45;31.01
82290;BME280;71891;21.336;-157.724;2023-08-21T05:12:51;101140.81;;;31.83;30.39
82290;BME280;71891;21.336;-157.724;2023-08-21T05:15:17;101143.70;;;31.87;30.68
82290;BME280;71891;21.336;-157.724;2023-08-21T05:17:42;101142.97;;;31.46;30.25
82290;BME280;71891;21.336;-157.724;2023-08-21T05:20:08;101136.90;;;31.33;31.02
82290;BME280;71891;21.336;-157.724;2023-08-21T05:22:34;101142.51;;;31.14;31.06
82290;BME280;71891;21.336;-157.724;2023-08-21T05:24:59;101144.01;;;30.89;31.32
82290;BME280;71891;21.336;-157.724;2023-08-21T05:27:25;101152.68;;;30.55;31.82
82290;BME280;71891;21.336;-157.724;2023-08-21T05:29:50;101160.26;;;30.40;32.03
82290;BME280;71891;21.336;-157.724;2023-08-21T05:32:16;101158.67;;;30.52;31.76
82290;BME280;71891;21.336;-157.724;2023-08-21T05:34:41;101160.26;;;31.19;31.58
82290;BME280;71891;21.336;-157.724;2023-08-21T05:37:07;101161.01;;;30.38;31.79
82290;BME280;71891;21.336;-157.724;2023-08-21T05:39:33;101163.62;;;30.48;32.12
82290;BME280;71891;21.336;-157.724;2023-08-21T05:41:58;101167.91;;;30.65;32.32
82290;BME280;71891;21.336;-157.724;2023-08-21T05:44:24;101173.91;;;30.45;32.91
82290;BME280;71891;21.336;-157.724;2023-08-21T05:46:50;101173.93;;;30.72;32.70
82290;BME280;71891;21.336;-157.724;2023-08-21T05:49:15;101182.25;;;29.94;33.47
82290;BME280;71891;21.336;-157.724;2023-08-21T05:51:41;101193.13;;;30.34;32.51
82290;BME280;71891;21.336;-157.724;2023-08-21T05:54:06;101187.05;;;30.74;32.19
82290;BME280;71891;21.336;-157.724;2023-08-21T05:56:32;101192.34;;;29.65;33.21
82290;BME280;71891;21.336;-157.724;2023-08-21T05:58:58;101197.26;;;30.38;32.78
82290;BME280;71891;21.336;-157.724;2023-08-21T06:01:23;101194.69;;;29.95;33.07
82290;BME280;71891;21.336;-157.724;2023-08-21T06:03:49;101197.73;;;29.82;32.69
82290;BME280;71891;21.336;-157.724;2023-08-21T06:06:15;101201.76;;;29.99;32.46
82290;BME280;71891;21.336;-157.724;2023-08-21T06:08:40;101202.36;;;29.96;33.13
82290;BME280;71891;21.336;-157.724;2023-08-21T06:11:06;101207.93;;;30.25;32.52
82290;BME280;71891;21.336;-157.724;2023-08-21T06:13:31;101208.43;;;30.41;32.21
82290;BME280;71891;21.336;-157.724;2023-08-21T06:15:57;101207.14;;;30.60;31.78
82290;BME280;71891;21.336;-157.724;2023-08-21T06:18:22;101208.40;;;30.71;32.28
82290;BME280;71891;21.336;-157.724;2023-08-21T06:20:48;101209.07;;;30.42;32.49
82290;BME280;71891;21.336;-157.724;2023-08-21T06:23:13;101210.66;;;30.07;32.59
82290;BME280;71891;21.336;-157.724;2023-08-21T06:25:39;101211.27;;;30.04;32.94
82290;BME280;71891;21.336;-157.724;2023-08-21T06:28:05;101213.28;;;29.83;33.21
82290;BME280;71891;21.336;-157.724;2023-08-21T06:30:30;101218.86;;;30.56;32.02
82290;BME280;71891;21.336;-157.724;2023-08-21T06:32:56;101213.80;;;30.78;32.34
82290;BME280;71891;21.336;-157.724;2023-08-21T06:35:22;101215.84;;;30.29;32.63
82290;BME280;71891;21.336;-157.724;2023-08-21T06:37:47;101219.83;;;30.21;32.57
82290;BME280;71891;21.336;-157.724;2023-08-21T06:40:13;101216.53;;;29.99;33.35
82290;BME280;71891;21.336;-157.724;2023-08-21T06:42:39;101224.97;;;30.36;32.53
82290;BME280;71891;21.336;-157.724;2023-08-21T06:45:05;101228.88;;;30.71;32.10
82290;BME280;71891;21.336;-157.724;2023-08-21T06:47:30;101226.62;;;29.88;33.15
82290;BME280;71891;21.336;-157.724;2023-08-21T06:49:56;101227.21;;;30.17;32.59
82290;BME280;71891;21.336;-157.724;2023-08-21T06:52:21;101228.27;;;30.11;32.72
82290;BME280;71891;21.336;-157.724;2023-08-21T06:54:47;101228.23;;;30.35;32.91
82290;BME280;71891;21.336;-157.724;2023-08-21T06:57:12;101225.98;;;30.33;32.77
82290;BME280;71891;21.336;-157.724;2023-08-21T06:59:38;101224.19;;;30.40;32.66
82290;BME280;71891;21.336;-157.724;2023-08-21T07:02:04;101222.60;;;29.82;33.58
82290;BME280;71891;21.336;-157.724;2023-08-21T07:04:29;101223.48;;;30.50;32.93
82290;BME280;71891;21.336;-157.724;2023-08-21T07:06:55;101225.69;;;29.52;33.60
82290;BME280;71891;21.336;-157.724;2023-08-21T07:09:21;101228.69;;;30.98;32.65
82290;BME280;71891;21.336;-157.724;2023-08-21T07:11:46;101230.15;;;29.59;33.71
82290;BME280;71891;21.336;-157.724;2023-08-21T07:14:12;101228.94;;;29.74;34.20
82290;BME280;71891;21.336;-157.724;2023-08-21T07:16:38;101234.69;;;30.10;33.69
82290;BME280;71891;21.336;-157.724;2023-08-21T07:19:03;101231.93;;;30.09;33.31
82290;BME280;71891;21.336;-157.724;2023-08-21T07:21:29;101230.99;;;30.29;33.79
82290;BME280;71891;21.336;-157.724;2023-08-21T07:23:54;101231.85;;;30.14;33.31
82290;BME280;71891;21.336;-157.724;2023-08-21T07:26:20;101235.53;;;29.93;33.64
82290;BME280;71891;21.336;-157.724;2023-08-21T07:28:46;101229.97;;;29.41;34.02
82290;BME280;71891;21.336;-157.724;2023-08-21T07:31:11;101227.78;;;29.77;34.19
82290;BME280;71891;21.336;-157.724;2023-08-21T07:33:38;101233.70;;;30.30;33.88
82290;BME280;71891;21.336;-157.724;2023-08-21T07:36:06;101238.48;;;30.33;33.55
82290;BME280;71891;21.336;-157.724;2023-08-21T07:38:28;101235.31;;;30.17;33.33
82290;BME280;71891;21.336;-157.724;2023-08-21T07:41:04;101236.06;;;29.74;34.18
82290;BME280;71891;21.336;-157.724;2023-08-21T07:43:19;101242.19;;;30.46;33.20
82290;BME280;71891;21.336;-157.724;2023-08-21T07:45:45;101243.69;;;30.13;33.72
82290;BME280;71891;21.336;-157.724;2023-08-21T07:48:11;101250.18;;;29.91;33.42
82290;BME280;71891;21.336;-157.724;2023-08-21T07:50:37;101244.73;;;30.02;33.70
82290;BME280;71891;21.336;-157.724;2023-08-21T07:53:02;101248.17;;;29.98;33.73
82290;BME280;71891;21.336;-157.724;2023-08-21T07:55:28;101238.34;;;29.37;34.46
82290;BME280;71891;21.336;-157.724;2023-08-21T07:57:53;101249.29;;;29.21;34.76
82290;BME280;71891;21.336;-157.724;2023-08-21T08:00:19;101247.75;;;29.29;34.66
82290;BME280;71891;21.336;-157.724;2023-08-21T08:02:44;101256.97;;;30.08;33.70
82290;BME280;71891;21.336;-157.724;2023-08-21T08:05:10;101251.05;;;29.73;34.37
82290;BME280;71891;21.336;-157.724;2023-08-21T08:07:36;101250.13;;;30.05;34.44
82290;BME280;71891;21.336;-157.724;2023-08-21T08:10:01;101256.41;;;29.63;34.08
82290;BME280;71891;21.336;-157.724;2023-08-21T08:12:27;101254.97;;;29.52;34.51
82290;BME280;71891;21.336;-157.724;2023-08-21T08:14:53;101258.24;;;30.39;33.96
82290;BME280;71891;21.336;-157.724;2023-08-21T08:17:18;101263.84;;;30.57;33.76
82290;BME280;71891;21.336;-157.724;2023-08-21T08:19:44;101265.53;;;30.26;34.45
82290;BME280;71891;21.336;-157.724;2023-08-21T08:22:09;101259.56;;;29.25;35.61
82290;BME280;71891;21.336;-157.724;2023-08-21T08:24:36;101265.07;;;30.23;35.04
82290;BME280;71891;21.336;-157.724;2023-08-21T08:27:01;101265.89;;;29.82;34.57
82290;BME280;71891;21.336;-157.724;2023-08-21T08:29:26;101268.71;;;30.04;34.30
82290;BME280;71891;21.336;-157.724;2023-08-21T08:31:52;101268.29;;;30.32;34.49
82290;BME280;71891;21.336;-157.724;2023-08-21T08:34:17;101266.72;;;30.26;34.59
82290;BME280;71891;21.336;-157.724;2023-08-21T08:36:43;101265.55;;;30.08;35.11
82290;BME280;71891;21.336;-157.724;2023-08-21T08:39:09;101267.52;;;30.11;34.79
82290;BME280;71891;21.336;-157.724;2023-08-21T08:41:41;101264.41;;;29.88;35.06
82290;BME280;71891;21.336;-157.724;2023-08-21T08:44:00;101262.82;;;29.82;35.33
82290;BME280;71891;21.336;-157.724;2023-08-21T08:46:25;101260.77;;;29.23;35.81
82290;BME280;71891;21.336;-157.724;2023-08-21T08:48:51;101263.28;;;29.14;36.01
82290;BME280;71891;21.336;-157.724;2023-08-21T08:51:17;101263.88;;;29.55;35.01
82290;BME280;71891;21.336;-157.724;2023-08-21T08:53:43;101267.23;;;29.34;35.65
82290;BME280;71891;21.336;-157.724;2023-08-21T08:56:08;101260.89;;;29.66;35.35
82290;BME280;71891;21.336;-157.724;2023-08-21T08:58:34;101267.79;;;29.58;35.19
82290;BME280;71891;21.336;-157.724;2023-08-21T09:00:59;101274.48;;;29.99;35.15
82290;BME280;71891;21.336;-157.724;2023-08-21T09:03:25;101269.21;;;30.23;34.63
82290;BME280;71891;21.336;-157.724;2023-08-21T09:05:51;101269.56;;;29.88;34.51
82290;BME280;71891;21.336;-157.724;2023-08-21T09:08:16;101276.18;;;30.39;33.70
82290;BME280;71891;21.336;-157.724;2023-08-21T09:10:42;101270.08;;;29.75;34.02
82290;BME280;71891;21.336;-157.724;2023-08-21T09:13:13;101273.58;;;29.64;34.25
82290;BME280;71891;21.336;-157.724;2023-08-21T09:15:33;101276.52;;;29.90;32.44
82290;BME280;71891;21.336;-157.724;2023-08-21T09:17:58;101273.35;;;30.72;33.51
82290;BME280;71891;21.336;-157.724;2023-08-21T09:20:24;101276.11;;;30.97;33.52
82290;BME280;71891;21.336;-157.724;2023-08-21T09:22:54;101272.97;;;30.03;34.19
82290;BME280;71891;21.336;-157.724;2023-08-21T09:25:15;101274.77;;;30.80;33.75
82290;BME280;71891;21.336;-157.724;2023-08-21T09:27:41;101271.63;;;31.15;33.86
82290;BME280;71891;21.336;-157.724;2023-08-21T09:30:09;101273.41;;;30.44;34.84
82290;BME280;71891;21.336;-157.724;2023-08-21T09:34:58;101272.77;;;30.32;35.02
82290;BME280;71891;21.336;-157.724;2023-08-21T09:37:28;101272.39;;;30.57;35.56
82290;BME280;71891;21.336;-157.724;2023-08-21T09:39:49;101282.55;;;29.69;36.63
82290;BME280;71891;21.336;-157.724;2023-08-21T09:42:15;101280.04;;;29.11;37.92
82290;BME280;71891;21.336;-157.724;2023-08-21T09:44:41;101284.91;;;29.43;36.85
82290;BME280;71891;21.336;-157.724;2023-08-21T09:47:09;101277.00;;;30.46;35.41
82290;BME280;71891;21.336;-157.724;2023-08-21T09:49:33;101277.24;;;30.99;34.36
82290;BME280;71891;21.336;-157.724;2023-08-21T09:51:58;101270.94;;;31.22;33.61
82290;BME280;71891;21.336;-157.724;2023-08-21T09:54:23;101269.92;;;30.84;33.89
82290;BME280;71891;21.336;-157.724;2023-08-21T09:56:49;101269.04;;;30.97;34.04
82290;BME280;71891;21.336;-157.724;2023-08-21T09:59:15;101269.12;;;31.22;33.37
82290;BME280;71891;21.336;-157.724;2023-08-21T10:01:40;101261.81;;;30.75;33.59
82290;BME280;71891;21.336;-157.724;2023-08-21T10:04:06;101264.07;;;31.17;33.35
82290;BME280;71891;21.336;-157.724;2023-08-21T10:06:32;101265.40;;;31.40;32.43
82290;BME280;71891;21.336;-157.724;2023-08-21T10:08:57;101263.72;;;31.28;32.64
82290;BME280;71891;21.336;-157.724;2023-08-21T10:11:23;101251.38;;;31.51;33.20
82290;BME280;71891;21.336;-157.724;2023-08-21T10:13:49;101250.13;;;31.40;32.92
82290;BME280;71891;21.336;-157.724;2023-08-21T10:16:14;101246.85;;;31.11;32.95
82290;BME280;71891;21.336;-157.724;2023-08-21T10:18:45;101249.32;;;30.90;32.82
82290;BME280;71891;21.336;-157.724;2023-08-21T10:21:15;101245.95;;;30.66;33.55
82290;BME280;71891;21.336;-157.724;2023-08-21T10:23:31;101245.13;;;30.02;33.83
82290;BME280;71891;21.336;-157.724;2023-08-21T10:25:57;101242.70;;;29.57;35.05
82290;BME280;71891;21.336;-157.724;2023-08-21T10:28:22;101242.35;;;30.52;34.07
82290;BME280;71891;21.336;-157.724;2023-08-21T10:30:48;101241.31;;;30.22;33.66
82290;BME280;71891;21.336;-157.724;2023-08-21T10:33:13;101233.57;;;30.31;33.65
82290;BME280;71891;21.336;-157.724;2023-08-21T10:35:39;101230.83;;;30.26;33.19
82290;BME280;71891;21.336;-157.724;2023-08-21T10:38:11;101225.81;;;30.44;33.39
82290;BME280;71891;21.336;-157.724;2023-08-21T10:40:30;101229.59;;;30.78;32.81
82290;BME280;71891;21.336;-157.724;2023-08-21T10:42:56;101222.69;;;30.66;33.51
82290;BME280;71891;21.336;-157.724;2023-08-21T10:45:21;101216.86;;;30.26;33.65
82290;BME280;71891;21.336;-157.724;2023-08-21T10:47:47;101221.66;;;30.90;33.40
82290;BME280;71891;21.336;-157.724;2023-08-21T10:50:13;101220.67;;;30.55;33.63
82290;BME280;71891;21.336;-157.724;2023-08-21T10:52:39;101218.50;;;30.41;34.14
82290;BME280;71891;21.336;-157.724;2023-08-21T10:55:05;101217.15;;;30.37;33.93
82290;BME280;71891;21.336;-157.724;2023-08-21T10:57:32;101209.68;;;30.37;33.60
82290;BME280;71891;21.336;-157.724;2023-08-21T10:59:57;101212.14;;;30.81;33.42
82290;BME280;71891;21.336;-157.724;2023-08-21T11:02:21;101210.19;;;30.80;33.89
82290;BME280;71891;21.336;-157.724;2023-08-21T11:04:47;101206.91;;;31.07;33.87
82290;BME280;71891;21.336;-157.724;2023-08-21T11:07:12;101201.00;;;30.12;34.48
82290;BME280;71891;21.336;-157.724;2023-08-21T11:09:39;101199.99;;;30.43;34.30
82290;BME280;71891;21.336;-157.724;2023-08-21T11:12:07;101197.60;;;30.63;34.76
82290;BME280;71891;21.336;-157.724;2023-08-21T11:14:29;101195.31;;;30.30;35.19
82290;BME280;71891;21.336;-157.724;2023-08-21T11:16:55;101190.76;;;31.19;34.34
82290;BME280;71891;21.336;-157.724;2023-08-21T11:19:20;101189.69;;;31.10;34.15
82290;BME280;71891;21.336;-157.724;2023-08-21T11:21:51;101198.09;;;29.46;37.05
82290;BME280;71891;21.336;-157.724;2023-08-21T11:24:12;101199.07;;;28.06;41.39
82290;BME280;71891;21.336;-157.724;2023-08-21T11:26:38;101199.80;;;27.28;43.69
82290;BME280;71891;21.336;-157.724;2023-08-21T11:29:03;101207.48;;;26.85;46.09
82290;BME280;71891;21.336;-157.724;2023-08-21T11:31:29;101212.41;;;26.41;47.74
82290;BME280;71891;21.336;-157.724;2023-08-21T11:33:55;101215.49;;;27.12;45.92
82290;BME280;71891;21.336;-157.724;2023-08-21T11:36:20;101215.72;;;27.59;44.24
82290;BME280;71891;21.336;-157.724;2023-08-21T11:38:58;101221.84;;;27.81;42.85
82290;BME280;71891;21.336;-157.724;2023-08-21T11:41:11;101212.69;;;28.68;41.81
82290;BME280;71891;21.336;-157.724;2023-08-21T11:43:38;101206.38;;;29.02;39.73
82290;BME280;71891;21.336;-157.724;2023-08-21T11:46:03;101194.17;;;29.67;38.93
82290;BME280;71891;21.336;-157.724;2023-08-21T11:48:28;101185.67;;;29.66;37.75
82290;BME280;71891;21.336;-157.724;2023-08-21T11:50:54;101183.11;;;30.49;36.60
82290;BME280;71891;21.336;-157.724;2023-08-21T11:53:31;101191.28;;;30.49;36.90
82290;BME280;71891;21.336;-157.724;2023-08-21T11:55:47;101195.53;;;29.47;37.19
82290;BME280;71891;21.336;-157.724;2023-08-21T11:58:11;101197.48;;;28.22;41.39
82290;BME280;71891;21.336;-157.724;2023-08-21T12:00:40;101194.96;;;28.58;40.82
82290;BME280;71891;21.336;-157.724;2023-08-21T12:03:03;101188.37;;;28.65;39.91
82290;BME280;71891;21.336;-157.724;2023-08-21T12:05:29;101185.45;;;28.87;39.39
82290;BME280;71891;21.336;-157.724;2023-08-21T12:07:54;101183.66;;;29.13;39.33
82290;BME280;71891;21.336;-157.724;2023-08-21T12:10:24;101182.18;;;29.33;38.26
82290;BME280;71891;21.336;-157.724;2023-08-21T12:12:45;101172.40;;;29.46;38.13
82290;BME280;71891;21.336;-157.724;2023-08-21T12:15:11;101168.31;;;29.78;37.23